createdAt,value
2023-05-09T00:01:11.466Z,65.87
2023-05-09T00:03:37.806Z,65.89
2023-05-09T00:06:04.957Z,66.03
2023-05-09T00:08:31.314Z,65.85
2023-05-09T00:10:57.885Z,66.18
2023-05-09T00:13:24.683Z,66.31
2023-05-09T00:15:53.913Z,66.11
2023-05-09T00:18:22.006Z,66.38
2023-05-09T00:20:49.143Z,66.20
2023-05-09T00:23:16.592Z,66.09
2023-05-09T00:25:43.100Z,66.03
2023-05-09T00:28:09.460Z,66.14
2023-05-09T00:30:35.820Z,66.35
2023-05-09T00:33:02.434Z,66.57
2023-05-09T00:35:29.009Z,66.34
2023-05-09T00:37:55.555Z,66.46
2023-05-09T00:40:22.331Z,66.53
2023-05-09T00:42:48.721Z,66.29
2023-05-09T00:45:15.433Z,66.66
2023-05-09T00:47:42.648Z,66.25
2023-05-09T00:50:09.443Z,66.62
2023-05-09T00:52:35.997Z,66.53
2023-05-09T00:55:02.806Z,66.62
2023-05-09T00:57:29.207Z,66.42
2023-05-09T00:59:55.976Z,66.63
2023-05-09T01:02:22.496Z,66.70
2023-05-09T01:04:49.114Z,66.71
2023-05-09T01:07:51.076Z,66.63
2023-05-09T01:10:26.750Z,66.50
2023-05-09T01:13:14.809Z,66.38
2023-05-09T01:15:54.036Z,66.46
2023-05-09T01:18:28.521Z,66.79
2023-05-09T01:21:28.024Z,66.64
2023-05-09T01:24:34.437Z,66.52
2023-05-09T01:27:22.284Z,66.68
2023-05-09T01:29:56.710Z,66.53
2023-05-09T01:32:28.921Z,66.85
2023-05-09T01:34:59.203Z,66.57
2023-05-09T01:37:34.523Z,66.99
2023-05-09T01:40:06.942Z,67.08
2023-05-09T01:42:41.021Z,67.10
2023-05-09T01:45:09.394Z,67.01
2023-05-09T01:47:38.319Z,66.97
2023-05-09T01:50:06.542Z,67.03
2023-05-09T01:52:34.656Z,67.18
2023-05-09T01:55:02.249Z,67.28
2023-05-09T01:57:30.400Z,67.05
2023-05-09T01:59:58.365Z,67.34
2023-05-09T02:02:27.320Z,67.14
2023-05-09T02:04:56.765Z,67.23
2023-05-09T02:07:24.916Z,67.43
2023-05-09T02:09:56.361Z,67.19
2023-05-09T02:12:24.120Z,67.29
2023-05-09T02:14:50.978Z,67.04
2023-05-09T02:17:17.369Z,67.05
2023-05-09T02:19:44.069Z,67.19
2023-05-09T02:22:12.092Z,67.14
2023-05-09T02:24:38.889Z,66.82
2023-05-09T02:27:07.093Z,67.26
2023-05-09T02:29:42.097Z,67.62
2023-05-09T02:32:15.419Z,67.36
2023-05-09T02:34:42.527Z,67.46
2023-05-09T02:37:10.731Z,67.37
2023-05-09T02:39:37.279Z,67.27
2023-05-09T02:42:08.885Z,67.59
2023-05-09T02:44:36.120Z,67.39
2023-05-09T02:47:03.513Z,67.71
2023-05-09T02:49:32.416Z,67.42
2023-05-09T02:52:00.740Z,67.45
2023-05-09T02:54:27.669Z,67.34
2023-05-09T02:56:54.081Z,67.44
2023-05-09T02:59:20.525Z,67.14
2023-05-09T03:01:47.271Z,66.96
2023-05-09T03:04:13.733Z,67.13
2023-05-09T03:06:40.319Z,66.78
2023-05-09T03:09:07.112Z,66.67
2023-05-09T03:11:36.662Z,66.58
2023-05-09T03:14:03.959Z,66.71
2023-05-09T03:16:31.192Z,66.86
2023-05-09T03:18:58.248Z,66.58
2023-05-09T03:21:24.650Z,66.35
2023-05-09T03:23:51.235Z,66.68
2023-05-09T03:26:17.786Z,66.42
2023-05-09T03:28:44.544Z,66.24
2023-05-09T03:31:11.073Z,66.31
2023-05-09T03:33:37.491Z,66.17
2023-05-09T03:36:05.119Z,66.22
2023-05-09T03:38:31.531Z,66.30
2023-05-09T03:40:57.951Z,66.33
2023-05-09T03:43:25.036Z,65.92
2023-05-09T03:45:51.404Z,65.76
2023-05-09T03:48:17.860Z,65.95
2023-05-09T03:50:49.154Z,66.08
2023-05-09T03:53:15.866Z,65.88
2023-05-09T03:55:44.227Z,65.90
2023-05-09T03:58:12.720Z,65.59
2023-05-09T04:00:41.849Z,65.73
2023-05-09T04:03:14.051Z,65.90
2023-05-09T04:05:45.180Z,65.96
2023-05-09T04:08:18.904Z,66.48
2023-05-09T04:10:45.333Z,66.08
2023-05-09T04:13:11.809Z,66.25
2023-05-09T04:15:38.646Z,66.46
2023-05-09T04:18:05.989Z,66.10
2023-05-09T04:20:32.547Z,66.10
2023-05-09T04:22:59.039Z,66.77
2023-05-09T04:25:25.922Z,66.08
2023-05-09T04:27:52.790Z,66.64
2023-05-09T04:30:20.841Z,66.62
2023-05-09T04:32:48.869Z,66.42
2023-05-09T04:35:16.846Z,66.87
2023-05-09T04:37:47.432Z,67.06
2023-05-09T04:40:14.494Z,66.60
2023-05-09T04:42:47.517Z,66.56
2023-05-09T04:45:14.278Z,66.81
2023-05-09T04:47:41.002Z,66.80
2023-05-09T04:50:08.251Z,67.51
2023-05-09T04:52:34.638Z,67.34
2023-05-09T04:55:01.435Z,67.05
2023-05-09T04:57:33.040Z,66.81
2023-05-09T04:59:59.489Z,67.23
2023-05-09T05:02:26.007Z,67.12
2023-05-09T05:04:57.932Z,67.14
2023-05-09T05:07:30.807Z,67.04
2023-05-09T05:09:57.174Z,67.13
2023-05-09T05:12:23.776Z,67.56
2023-05-09T05:14:50.283Z,67.60
2023-05-09T05:17:19.679Z,67.80
2023-05-09T05:19:46.506Z,67.84
2023-05-09T05:22:13.517Z,67.92
2023-05-09T05:24:42.836Z,67.75
2023-05-09T05:27:09.564Z,67.65
2023-05-09T05:29:35.962Z,67.11
2023-05-09T05:32:02.483Z,67.36
2023-05-09T05:34:28.984Z,66.98
2023-05-09T05:36:56.345Z,67.34
2023-05-09T05:39:22.786Z,67.15
2023-05-09T05:41:49.229Z,66.85
2023-05-09T05:44:16.244Z,67.16
2023-05-09T05:46:42.636Z,67.13
2023-05-09T05:49:09.196Z,67.24
2023-05-09T05:51:35.593Z,66.92
2023-05-09T05:54:03.140Z,67.01
2023-05-09T05:56:29.767Z,67.18
2023-05-09T05:58:56.911Z,67.16
2023-05-09T06:01:23.274Z,67.32
2023-05-09T06:03:54.532Z,67.16
2023-05-09T06:06:22.548Z,67.29
2023-05-09T06:08:51.967Z,67.32
2023-05-09T06:11:19.553Z,67.13
2023-05-09T06:13:45.992Z,67.49
2023-05-09T06:16:19.688Z,66.97
2023-05-09T06:18:49.263Z,67.27
2023-05-09T06:21:15.715Z,66.83
2023-05-09T06:23:57.133Z,66.84
2023-05-09T06:26:28.385Z,66.56
2023-05-09T06:28:55.027Z,67.03
2023-05-09T06:31:22.016Z,67.21
2023-05-09T06:33:49.444Z,66.78
2023-05-09T06:36:15.793Z,66.59
2023-05-09T06:38:42.162Z,66.64
2023-05-09T06:41:08.537Z,65.99
2023-05-09T06:43:34.880Z,65.75
2023-05-09T06:46:01.977Z,65.98
2023-05-09T06:48:28.357Z,65.62
2023-05-09T06:50:54.756Z,65.30
2023-05-09T06:53:21.171Z,64.68
2023-05-09T06:55:47.697Z,65.13
2023-05-09T06:58:14.631Z,64.81
2023-05-09T07:00:40.982Z,64.59
2023-05-09T07:03:07.414Z,65.02
2023-05-09T07:05:34.465Z,64.21
2023-05-09T07:08:00.975Z,64.31
2023-05-09T07:10:27.673Z,64.01
2023-05-09T07:12:54.276Z,63.51
2023-05-09T07:15:32.566Z,63.61
2023-05-09T07:18:06.695Z,63.66
2023-05-09T07:20:33.124Z,63.42
2023-05-09T07:22:59.856Z,63.95
2023-05-09T07:25:26.268Z,63.59
2023-05-09T07:27:52.615Z,63.45
2023-05-09T07:30:19.100Z,63.41
2023-05-09T07:32:45.645Z,62.72
2023-05-09T07:35:12.443Z,63.03
2023-05-09T07:37:39.052Z,62.62
2023-05-09T07:40:06.144Z,62.67
2023-05-09T07:42:33.029Z,62.61
2023-05-09T07:45:00.207Z,62.52
2023-05-09T07:47:26.635Z,62.80
2023-05-09T07:49:53.031Z,62.34
2023-05-09T07:52:19.428Z,61.41
2023-05-09T07:54:45.803Z,61.11
2023-05-09T07:57:12.217Z,61.19
2023-05-09T07:59:38.643Z,59.97
2023-05-09T08:02:05.074Z,60.04
2023-05-09T08:04:31.624Z,60.12
2023-05-09T08:06:59.350Z,60.19
2023-05-09T08:09:26.488Z,59.26
2023-05-09T08:11:52.962Z,58.89
2023-05-09T08:14:19.396Z,58.53
2023-05-09T08:16:45.734Z,58.29
2023-05-09T08:19:12.083Z,58.14
2023-05-09T08:21:38.549Z,57.93
2023-05-09T08:24:07.861Z,57.52
2023-05-09T08:26:35.149Z,57.35
2023-05-09T08:29:01.798Z,57.20
2023-05-09T08:31:28.189Z,57.46
2023-05-09T08:33:54.632Z,57.46
2023-05-09T08:36:20.997Z,57.25
2023-05-09T08:38:47.342Z,57.21
2023-05-09T08:41:13.997Z,56.82
2023-05-09T08:43:41.301Z,55.27
2023-05-09T08:46:09.717Z,55.56
2023-05-09T08:48:39.488Z,55.67
2023-05-09T08:51:06.540Z,56.65
2023-05-09T08:53:34.152Z,56.17
2023-05-09T08:56:01.664Z,55.42
2023-05-09T08:58:28.582Z,55.26
2023-05-09T09:00:58.367Z,55.24
2023-05-09T09:03:27.703Z,54.52
2023-05-09T09:05:55.590Z,55.00
2023-05-09T09:08:22.854Z,54.81
2023-05-09T09:10:49.624Z,54.81
2023-05-09T09:13:17.994Z,54.96
2023-05-09T09:15:46.735Z,55.12
2023-05-09T09:18:20.527Z,55.75
2023-05-09T09:20:51.878Z,55.49
2023-05-09T09:23:20.448Z,54.52
2023-05-09T09:25:48.159Z,55.03
2023-05-09T09:28:15.285Z,55.24
2023-05-09T09:30:45.723Z,55.14
2023-05-09T09:33:21.814Z,54.78
2023-05-09T09:35:49.927Z,54.22
2023-05-09T09:38:18.771Z,53.49
2023-05-09T09:40:58.833Z,53.64
2023-05-09T09:43:32.420Z,52.21
2023-05-09T09:46:05.756Z,51.09
2023-05-09T09:48:34.528Z,50.26
2023-05-09T09:51:10.476Z,50.04
2023-05-09T09:53:41.285Z,50.65
2023-05-09T09:56:08.083Z,50.71
2023-05-09T09:58:34.841Z,50.34
2023-05-09T10:01:13.916Z,49.73
2023-05-09T10:03:42.786Z,48.75
2023-05-09T10:06:16.593Z,49.69
2023-05-09T10:08:47.105Z,48.79
2023-05-09T10:11:13.797Z,47.81
2023-05-09T10:13:40.494Z,48.08
2023-05-09T10:16:08.850Z,47.96
2023-05-09T10:18:35.880Z,47.96
2023-05-09T10:21:04.023Z,48.61
2023-05-09T10:23:32.715Z,48.59
2023-05-09T10:26:11.461Z,49.15
2023-05-09T10:28:40.531Z,48.89
2023-05-09T10:31:14.719Z,49.67
2023-05-09T10:33:46.244Z,49.89
2023-05-09T10:36:15.286Z,48.82
2023-05-09T10:38:42.654Z,49.33
2023-05-09T10:41:10.741Z,49.92
2023-05-09T10:43:37.558Z,49.37
2023-05-09T10:46:05.059Z,49.08
2023-05-09T10:48:36.350Z,49.09
2023-05-09T10:51:03.632Z,49.33
2023-05-09T10:53:49.757Z,49.67
2023-05-09T10:56:28.749Z,49.59
2023-05-09T10:58:55.223Z,50.00
2023-05-09T11:01:39.025Z,48.01
2023-05-09T11:04:14.276Z,49.62
2023-05-09T11:06:49.286Z,48.89
2023-05-09T11:09:37.824Z,48.23
2023-05-09T11:12:07.273Z,48.27
2023-05-09T11:14:48.652Z,47.07
2023-05-09T11:17:20.939Z,47.09
2023-05-09T11:19:47.334Z,47.96
2023-05-09T11:22:20.173Z,47.35
2023-05-09T11:24:48.741Z,48.24
2023-05-09T11:27:23.158Z,47.50
2023-05-09T11:30:05.294Z,47.42
2023-05-09T11:32:33.104Z,47.08
2023-05-09T11:35:14.895Z,47.53
2023-05-09T11:37:54.933Z,47.66
2023-05-09T11:40:22.777Z,47.13
2023-05-09T11:42:57.969Z,47.48
2023-05-09T11:45:30.967Z,47.46
2023-05-09T11:47:57.752Z,47.44
2023-05-09T11:50:24.355Z,47.77
2023-05-09T11:52:51.193Z,47.59
2023-05-09T11:55:20.278Z,48.21
2023-05-09T11:57:53.995Z,48.35
2023-05-09T12:00:24.938Z,48.84
2023-05-09T12:02:52.434Z,47.72
2023-05-09T12:05:20.866Z,46.84
2023-05-09T12:07:47.676Z,47.28
2023-05-09T12:10:20.797Z,48.52
2023-05-09T12:12:52.107Z,47.50
2023-05-09T12:15:20.115Z,47.43
2023-05-09T12:17:50.473Z,47.99
2023-05-09T12:20:18.296Z,47.56
2023-05-09T12:22:44.672Z,46.50
2023-05-09T12:25:11.967Z,47.19
2023-05-09T12:27:39.835Z,45.20
2023-05-09T12:30:11.015Z,44.34
2023-05-09T12:32:39.994Z,44.90
2023-05-09T12:35:08.287Z,45.32
2023-05-09T12:37:34.651Z,43.74
2023-05-09T12:40:12.464Z,43.28
2023-05-09T12:42:39.650Z,42.93
2023-05-09T12:45:08.708Z,43.41
2023-05-09T12:47:35.372Z,43.20
2023-05-09T12:50:03.398Z,43.62
2023-05-09T12:52:50.706Z,44.09
2023-05-09T12:55:25.249Z,44.14
2023-05-09T12:58:02.543Z,42.72
2023-05-09T13:00:29.583Z,44.39
2023-05-09T13:02:56.087Z,44.92
2023-05-09T13:05:23.334Z,44.27
2023-05-09T13:07:52.358Z,44.11
2023-05-09T13:10:23.714Z,44.04
2023-05-09T13:12:52.002Z,44.22
2023-05-09T13:15:20.322Z,43.13
2023-05-09T13:17:51.424Z,44.14
2023-05-09T13:20:19.173Z,44.07
2023-05-09T13:22:46.337Z,43.66
2023-05-09T13:25:13.463Z,44.04
2023-05-09T13:27:39.964Z,44.52
2023-05-09T13:30:10.040Z,43.29
2023-05-09T13:32:36.527Z,43.15
2023-05-09T13:35:04.487Z,43.53
2023-05-09T13:37:30.851Z,42.95
2023-05-09T13:39:57.191Z,42.48
2023-05-09T13:42:23.506Z,43.65
2023-05-09T13:44:49.833Z,44.29
2023-05-09T13:47:16.224Z,44.33
2023-05-09T13:49:42.609Z,43.34
2023-05-09T13:52:09.067Z,44.06
2023-05-09T13:54:35.453Z,45.34
2023-05-09T13:57:03.494Z,48.68
2023-05-09T13:59:30.978Z,51.58
2023-05-09T14:01:59.683Z,53.35
2023-05-09T14:04:29.659Z,54.10
2023-05-09T14:06:56.456Z,54.72
2023-05-09T14:09:22.990Z,55.79
2023-05-09T14:11:53.055Z,54.83
2023-05-09T14:14:20.912Z,55.58
2023-05-09T14:16:48.047Z,56.26
2023-05-09T14:19:17.853Z,57.16
2023-05-09T14:21:47.156Z,57.20
2023-05-09T14:24:16.091Z,57.83
2023-05-09T14:26:43.188Z,58.82
2023-05-09T14:29:09.824Z,58.18
2023-05-09T14:31:36.855Z,58.85
2023-05-09T14:34:04.994Z,59.48
2023-05-09T14:36:32.412Z,60.03
2023-05-09T14:38:58.798Z,60.28
2023-05-09T14:41:25.339Z,60.79
2023-05-09T14:43:52.343Z,61.28
2023-05-09T14:46:19.142Z,61.27
2023-05-09T14:48:45.563Z,61.82
2023-05-09T14:51:12.138Z,62.56
2023-05-09T14:53:41.802Z,62.35
2023-05-09T14:56:10.728Z,62.59
2023-05-09T14:58:37.406Z,63.59
2023-05-09T15:01:06.964Z,63.47
2023-05-09T15:03:36.695Z,64.43
2023-05-09T15:06:03.235Z,64.39
2023-05-09T15:08:29.595Z,64.63
2023-05-09T15:10:57.576Z,64.72
2023-05-09T15:13:23.967Z,64.78
2023-05-09T15:15:50.320Z,64.87
2023-05-09T15:18:18.561Z,65.41
2023-05-09T15:20:45.042Z,65.00
2023-05-09T15:23:13.275Z,66.20
2023-05-09T15:25:42.824Z,65.77
2023-05-09T15:28:09.204Z,65.96
2023-05-09T15:30:38.162Z,66.90
2023-05-09T15:33:04.935Z,66.97
2023-05-09T15:35:31.370Z,66.59
2023-05-09T15:37:57.947Z,66.88
2023-05-09T15:40:24.436Z,66.35
2023-05-09T15:42:51.057Z,66.95
2023-05-09T15:45:17.528Z,67.36
2023-05-09T15:47:44.022Z,67.25
2023-05-09T15:50:10.757Z,68.21
2023-05-09T15:52:37.193Z,68.09
2023-05-09T15:55:04.311Z,67.64
2023-05-09T15:57:30.673Z,68.18
2023-05-09T15:59:57.053Z,68.25
2023-05-09T16:02:23.864Z,68.68
2023-05-09T16:04:50.510Z,68.42
2023-05-09T16:07:19.324Z,69.05
2023-05-09T16:09:46.235Z,68.48
2023-05-09T16:12:13.607Z,68.76
2023-05-09T16:14:40.031Z,68.67
2023-05-09T16:17:06.548Z,69.00
2023-05-09T16:19:35.927Z,68.78
2023-05-09T16:22:02.626Z,68.97
2023-05-09T16:24:29.283Z,68.94
2023-05-09T16:26:55.670Z,68.84
2023-05-09T16:29:22.384Z,68.93
2023-05-09T16:31:48.785Z,69.52
2023-05-09T16:34:15.132Z,68.99
2023-05-09T16:36:43.973Z,68.84
2023-05-09T16:39:10.362Z,69.17
2023-05-09T16:41:38.832Z,69.40
2023-05-09T16:44:05.229Z,69.72
2023-05-09T16:46:31.826Z,69.70
2023-05-09T16:48:58.217Z,69.77
2023-05-09T16:51:24.638Z,69.83
2023-05-09T16:53:51.083Z,69.91
2023-05-09T16:56:17.493Z,70.02
2023-05-09T16:58:44.806Z,70.18
2023-05-09T17:01:11.511Z,70.50
2023-05-09T17:03:37.921Z,69.96
2023-05-09T17:06:04.650Z,70.29
2023-05-09T17:08:31.378Z,69.94
2023-05-09T17:10:58.040Z,70.20
2023-05-09T17:13:24.553Z,70.69
2023-05-09T17:15:52.504Z,70.22
2023-05-09T17:18:25.463Z,70.82
2023-05-09T17:21:00.153Z,70.65
2023-05-09T17:23:26.490Z,71.09
2023-05-09T17:25:52.912Z,70.95
2023-05-09T17:28:19.241Z,70.82
2023-05-09T17:30:45.877Z,70.63
2023-05-09T17:33:12.303Z,70.76
2023-05-09T17:35:38.652Z,70.97
2023-05-09T17:38:05.094Z,70.98
2023-05-09T17:40:31.415Z,71.00
2023-05-09T17:42:58.082Z,70.76
2023-05-09T17:45:24.431Z,70.68
2023-05-09T17:47:50.789Z,71.05
2023-05-09T17:50:17.472Z,71.06
2023-05-09T17:52:44.460Z,71.14
2023-05-09T17:55:11.517Z,71.14
2023-05-09T17:57:37.928Z,70.75
2023-05-09T18:00:07.813Z,70.99
2023-05-09T18:02:40.519Z,70.77
2023-05-09T18:05:10.985Z,70.86
2023-05-09T18:07:39.060Z,70.88
2023-05-09T18:10:06.170Z,70.54
2023-05-09T18:12:34.979Z,71.22
2023-05-09T18:15:03.479Z,71.06
2023-05-09T18:17:29.916Z,71.37
2023-05-09T18:19:56.303Z,71.27
2023-05-09T18:22:23.975Z,70.97
2023-05-09T18:24:52.518Z,71.53
2023-05-09T18:27:18.858Z,71.36
2023-05-09T18:29:47.294Z,71.66
2023-05-09T18:32:13.877Z,71.78
2023-05-09T18:34:40.686Z,71.42
2023-05-09T18:37:07.471Z,71.53
2023-05-09T18:39:34.086Z,71.63
2023-05-09T18:42:00.441Z,71.85
2023-05-09T18:44:26.894Z,71.33
2023-05-09T18:46:54.026Z,71.09
2023-05-09T18:49:20.487Z,70.98
2023-05-09T18:51:46.817Z,70.97
2023-05-09T18:54:14.718Z,70.91
2023-05-09T18:56:42.209Z,71.06
2023-05-09T18:59:11.827Z,70.79
2023-05-09T19:01:38.245Z,71.11
2023-05-09T19:04:05.008Z,70.96
2023-05-09T19:06:32.384Z,71.33
2023-05-09T19:08:58.816Z,71.35
2023-05-09T19:11:25.436Z,71.42
2023-05-09T19:13:52.861Z,71.26
2023-05-09T19:16:21.575Z,71.08
2023-05-09T19:18:48.691Z,70.74
2023-05-09T19:21:15.858Z,70.76
2023-05-09T19:23:42.614Z,70.45
2023-05-09T19:26:09.994Z,70.50
2023-05-09T19:28:36.603Z,70.67
2023-05-09T19:31:03.081Z,70.69
2023-05-09T19:33:29.524Z,70.86
2023-05-09T19:35:55.832Z,70.88
2023-05-09T19:38:22.222Z,70.90
2023-05-09T19:40:48.656Z,70.96
2023-05-09T19:43:15.100Z,70.89
2023-05-09T19:45:41.467Z,70.81
2023-05-09T19:48:08.399Z,70.94
2023-05-09T19:50:34.794Z,70.91
2023-05-09T19:53:01.201Z,71.00
2023-05-09T19:55:27.747Z,71.03
2023-05-09T19:57:54.079Z,70.97
2023-05-09T20:00:20.690Z,70.74
2023-05-09T20:02:47.223Z,70.98
2023-05-09T20:05:13.814Z,70.89
2023-05-09T20:07:40.456Z,70.85
2023-05-09T20:10:07.217Z,70.94
2023-05-09T20:12:33.838Z,70.68
2023-05-09T20:15:00.806Z,70.92
2023-05-09T20:17:27.197Z,70.66
2023-05-09T20:19:53.686Z,70.68
2023-05-09T20:22:20.565Z,70.89
2023-05-09T20:24:46.988Z,70.77
2023-05-09T20:27:13.375Z,70.98
2023-05-09T20:29:39.771Z,71.08
2023-05-09T20:32:06.246Z,70.68
2023-05-09T20:34:32.799Z,70.63
2023-05-09T20:36:59.522Z,70.58
2023-05-09T20:39:26.739Z,70.72
2023-05-09T20:41:55.406Z,70.77
2023-05-09T20:44:21.812Z,70.94
2023-05-09T20:46:48.288Z,71.13
2023-05-09T20:49:15.161Z,71.24
2023-05-09T20:51:42.121Z,70.99
2023-05-09T20:54:08.516Z,71.59
2023-05-09T20:56:35.428Z,71.96
2023-05-09T20:59:03.760Z,71.68
2023-05-09T21:01:37.135Z,71.38
2023-05-09T21:04:08.206Z,71.40
2023-05-09T21:06:36.140Z,71.58
2023-05-09T21:09:03.277Z,71.53
2023-05-09T21:11:29.742Z,71.61
2023-05-09T21:13:56.075Z,71.48
2023-05-09T21:16:23.047Z,71.29
2023-05-09T21:18:49.580Z,71.64
2023-05-09T21:21:15.939Z,71.57
2023-05-09T21:23:42.302Z,71.38
2023-05-09T21:26:08.991Z,71.57
2023-05-09T21:28:35.388Z,71.42
2023-05-09T21:31:01.923Z,71.51
2023-05-09T21:33:29.418Z,71.66
2023-05-09T21:35:55.830Z,72.07
2023-05-09T21:38:22.265Z,72.17
2023-05-09T21:40:51.056Z,72.08
2023-05-09T21:43:18.129Z,72.16
2023-05-09T21:45:45.833Z,71.92
2023-05-09T21:48:12.358Z,72.20
2023-05-09T21:50:38.814Z,71.95
2023-05-09T21:53:05.337Z,71.91
2023-05-09T21:55:31.718Z,72.38
2023-05-09T21:57:58.172Z,72.53
2023-05-09T22:00:24.699Z,72.27
2023-05-09T22:02:51.246Z,72.50
2023-05-09T22:05:17.975Z,72.62
2023-05-09T22:07:44.476Z,72.62
2023-05-09T22:10:11.190Z,72.53
2023-05-09T22:12:37.779Z,72.75
2023-05-09T22:15:04.681Z,72.90
2023-05-09T22:17:31.069Z,72.85
2023-05-09T22:19:57.486Z,73.07
2023-05-09T22:22:23.887Z,73.12
2023-05-09T22:24:50.271Z,73.34
2023-05-09T22:27:16.809Z,73.40
2023-05-09T22:29:43.191Z,73.12
2023-05-09T22:32:09.641Z,73.54
2023-05-09T22:34:36.121Z,73.30
2023-05-09T22:37:02.661Z,73.38
2023-05-09T22:39:29.707Z,73.20
2023-05-09T22:41:56.593Z,73.51
2023-05-09T22:44:22.980Z,73.12
2023-05-09T22:46:49.413Z,73.58
2023-05-09T22:49:15.848Z,73.75
2023-05-09T22:51:42.247Z,73.68
2023-05-09T22:54:08.957Z,73.70
2023-05-09T22:56:35.350Z,73.88
2023-05-09T22:59:01.739Z,73.55
2023-05-09T23:01:28.251Z,73.64
2023-05-09T23:03:54.625Z,73.72
2023-05-09T23:06:20.995Z,74.06
2023-05-09T23:08:47.473Z,73.76
2023-05-09T23:11:13.926Z,73.94
2023-05-09T23:13:40.520Z,73.94
2023-05-09T23:16:06.915Z,74.18
2023-05-09T23:18:33.337Z,73.99
2023-05-09T23:20:59.686Z,73.74
2023-05-09T23:23:26.114Z,73.81
2023-05-09T23:25:52.562Z,73.98
2023-05-09T23:28:20.306Z,73.82
2023-05-09T23:30:46.806Z,74.14
2023-05-09T23:33:13.297Z,73.85
2023-05-09T23:35:39.670Z,73.90
2023-05-09T23:38:06.233Z,74.18
2023-05-09T23:40:32.616Z,73.92
2023-05-09T23:42:59.112Z,74.05
2023-05-09T23:45:25.736Z,74.40
2023-05-09T23:47:52.300Z,74.48
2023-05-09T23:50:18.934Z,74.32
2023-05-09T23:52:49.064Z,74.44
2023-05-09T23:55:15.593Z,74.43
2023-05-09T23:57:42.130Z,74.20
